Latest Weather Observations for Dalwallinu

IDW60801

Issued at 9:22 pm WST Saturday 22 June 2024 (issued every 10 minutes, with the page automatically refreshed every 10 minutes)

About weather observations | Map of weather stations | Latest weather observations for WA | Other Formats
Station Details ID: 008297 Name: DALWALLINU Lat: -30.28 Lon: 116.67 Height: 324.5 m
Data from the previous 72 hours. | See also: Recent months at Dalwallinu
Date/Time
WST
Temp
°C
App
Temp
°C
Dew
Point
°C
Rel
Hum
%
Delta-T
°C
Wind Press
QNH
hPa
Press
MSL
hPa
Rain since
9am
mm
Dir  Spd
km/h
Gust
km/h
Spd
kts
Gust
kts
22/09:00pm 10.5 6.8 6.3 75 2.0 SSW 15 19 8 10 1024.7 1024.6 0.0
22/08:30pm 10.5 6.8 6.3 75 2.0 SSW 15 19 8 10 1024.3 1024.2 0.0
22/08:00pm 10.7 7.0 6.1 73 2.2 SSW 15 19 8 10 1023.9 1023.8 0.0
22/07:30pm 11.1 7.3 6.0 71 2.4 SSW 15 19 8 10 1023.6 1023.5 0.0
22/07:00pm 11.5 7.7 5.8 68 2.7 SSW 15 19 8 10 1023.3 1023.2 0.0
22/06:30pm 12.7 8.9 5.6 62 3.4 SSW 15 24 8 13 1022.9 1022.8 0.0
22/06:00pm 13.1 9.6 5.5 60 3.6 SSW 13 17 7 9 1022.4 1022.3 0.0
22/05:30pm 14.4 10.5 5.2 54 4.4 SSW 15 19 8 10 1021.9 1021.7 0.0
22/05:00pm 15.6 11.3 5.2 50 5.0 SSW 17 22 9 12 1021.7 1021.5 0.0
22/04:30pm 16.4 12.3 4.4 45 5.7 SSW 15 24 8 13 1021.4 1021.2 0.0
22/04:00pm 16.9 11.9 3.6 41 6.2 SSW 19 28 10 15 1021.1 1021.0 0.0
22/03:30pm 16.9 11.2 4.9 45 5.8 SSW 24 33 13 18 1020.7 1020.6 0.0
22/03:00pm 17.1 11.9 5.4 46 5.7 SW 22 32 12 17 1020.6 1020.5 0.0
22/02:30pm 17.3 12.1 7.1 51 5.2 SW 24 32 13 17 1020.4 1020.3 0.0
22/02:00pm 16.9 11.2 8.3 57 4.4 SW 28 35 15 19 1020.2 1020.1 0.0
22/01:30pm 16.6 12.1 10.2 66 3.4 SW 24 33 13 18 1020.3 1020.2 0.0
22/01:00pm 15.5 12.4 12.1 80 1.9 SW 20 32 11 17 1020.4 1020.3 0.0
22/12:30pm 13.7 9.0 11.9 89 1.0 SSW 28 43 15 23 1020.5 1020.4 0.0
22/12:00pm 14.4 10.6 12.4 88 1.1 SW 24 33 13 18 1020.7 1020.6 0.0
22/11:30am 15.8 12.9 12.4 80 1.9 W 19 26 10 14 1020.9 1020.8 0.0
22/11:00am 16.6 13.4 12.0 74 2.5 WSW 20 28 11 15 1020.9 1020.8 0.0
22/10:30am 16.7 14.2 12.3 75 2.5 W 17 22 9 12 1020.8 1020.7 0.0
22/10:00am 16.0 12.9 11.6 75 2.4 WNW 19 26 10 14 1020.5 1020.4 0.0
22/09:30am 14.9 12.0 10.9 77 2.2 NW 17 26 9 14 1020.4 1020.3 0.0
22/09:00am 13.6 10.3 9.6 77 2.1 NW 17 24 9 13 1020.2 1020.1 0.0
22/08:30am 12.8 9.3 8.9 77 2.0 NNW 17 22 9 12 1019.7 1019.6 0.0
22/08:00am 11.7 8.1 8.4 80 1.7 NNW 17 20 9 11 1019.4 1019.3 0.0
22/07:30am 11.2 8.7 8.2 82 1.5 NNW 11 15 6 8 1019.1 1018.9 0.0
22/07:00am 11.3 8.9 8.5 83 1.4 NNW 11 15 6 8 1018.7 1018.5 0.0
22/06:30am 12.6 9.3 9.4 81 1.6 NNW 17 20 9 11 1018.6 1018.4 0.0
22/06:00am 12.4 9.8 9.2 81 1.6 NW 13 19 7 10 1018.4 1018.2 0.0
22/05:30am 12.5 9.8 8.8 78 1.9 NW 13 19 7 10 1018.3 1018.1 0.0
22/05:00am 12.4 8.3 7.9 74 2.2 NNW 19 22 10 12 1018.1 1017.9 0.0
22/04:30am 12.8 8.8 6.8 67 2.9 NNW 17 26 9 14 1018.2 1018.0 0.0
22/04:00am 13.0 9.0 6.8 66 3.0 NNW 17 20 9 11 1018.3 1018.1 0.0
22/03:30am 12.0 7.6 6.5 69 2.7 NNW 19 22 10 12 1018.1 1017.9 0.0
22/03:00am 10.9 7.5 6.1 72 2.3 NNW 13 19 7 10 1018.4 1018.2 0.0
22/02:30am 10.5 7.0 5.5 71 2.3 NNW 13 17 7 9 1018.6 1018.4 0.0
22/02:00am 10.5 5.8 5.3 70 2.4 N 19 24 10 13 1018.6 1018.4 0.0
22/01:30am 10.2 6.2 4.8 69 2.5 NNW 15 19 8 10 1018.9 1018.7 0.0
22/01:00am 10.2 5.4 4.4 67 2.6 N 19 22 10 12 1019.0 1018.8 0.0
22/12:30am 10.4 5.9 4.1 65 2.8 N 17 24 9 13 1019.3 1019.1 0.0
22/12:00am 11.0 6.8 4.0 62 3.2 N 15 17 8 9 1019.6 1019.5 0.0
 
Date/Time
WST
Temp
°C
App
Temp
°C
Dew
Point
°C
Rel
Hum
%
Delta-T
°C
Wind Press
QNH
hPa
Press
MSL
hPa
Rain since
9am
mm
Dir  Spd
km/h
Gust
km/h
Spd
kts
Gust
kts
21/11:30pm 8.6 5.4 2.8 67 2.5 NNE 9 11 5 6 1019.8 1019.7 0.0
21/11:00pm 9.6 6.0 3.1 64 2.8 N 11 13 6 7 1020.0 1019.9 0.0
21/10:30pm 9.2 5.6 3.0 65 2.7 N 11 17 6 9 1020.2 1020.1 0.0
21/10:00pm 10.3 5.6 3.1 61 3.2 N 17 19 9 10 1020.2 1020.1 0.0
21/09:30pm 10.5 5.7 2.8 59 3.4 N 17 19 9 10 1020.4 1020.3 0.0
21/09:00pm 9.4 5.3 2.5 62 3.0 N 13 15 7 8 1020.4 1020.3 0.0
21/08:30pm 10.0 5.6 2.6 60 3.2 N 15 17 8 9 1020.3 1020.2 0.0
21/08:00pm 10.4 6.0 2.5 58 3.4 N 15 17 8 9 1020.3 1020.2 0.0
21/07:30pm 10.8 6.7 2.4 56 3.7 N 13 17 7 9 1020.4 1020.3 0.0
21/07:00pm 11.7 7.3 2.7 54 4.0 NNE 15 17 8 9 1020.2 1020.1 0.0
21/06:30pm 12.4 8.4 2.8 52 4.3 N 13 15 7 8 1020.1 1020.0 0.0
21/06:00pm 13.4 9.4 2.9 49 4.7 NNE 13 15 7 8 1019.9 1019.8 0.0
21/05:30pm 13.8 9.5 3.0 48 4.9 NNE 15 15 8 8 1019.8 1019.7 0.0
21/05:00pm 16.2 11.4 2.6 40 6.2 N 17 20 9 11 1019.8 1019.7 0.0
21/04:30pm 17.6 11.9 2.8 37 6.9 NNE 22 28 12 15 1019.8 1019.7 0.0
21/04:00pm 17.9 11.8 2.6 36 7.1 NNE 24 32 13 17 1019.8 1019.7 0.0
21/03:30pm 18.1 11.6 2.8 36 7.2 NNE 26 33 14 18 1020.0 1019.9 0.0
21/03:00pm 18.2 11.7 2.9 36 7.2 N 26 33 14 18 1020.2 1020.1 0.0
21/02:30pm 18.5 11.2 2.4 34 7.5 NNE 30 35 16 19 1020.4 1020.3 0.0
21/02:00pm 18.3 10.8 3.4 37 7.0 N 32 43 17 23 1020.7 1020.6 0.0
21/01:30pm 18.0 10.5 3.5 38 6.9 N 32 39 17 21 1021.1 1021.0 0.0
21/01:00pm 17.7 10.0 3.2 38 6.8 NNE 33 43 18 23 1021.5 1021.3 0.0
21/12:30pm 17.2 9.7 4.5 43 6.1 N 33 43 18 23 1021.9 1021.7 0.0
21/12:00pm 16.2 8.9 4.6 46 5.5 NNE 32 43 17 23 1022.6 1022.5 0.0
21/11:30am 16.0 7.8 4.7 47 5.4 NNE 37 46 20 25 1022.9 1022.8 0.0
21/11:00am 15.0 6.8 5.0 51 4.8 NNE 37 48 20 26 1023.3 1023.2 0.0
21/10:30am 14.5 7.2 5.3 54 4.4 NNE 33 48 18 26 1023.8 1023.7 0.0
21/10:00am 12.4 6.0 5.3 62 3.3 NNE 28 39 15 21 1024.6 1024.4 0.0
21/09:30am 11.1 5.6 5.8 70 2.5 NNE 24 30 13 16 1024.9 1024.8 0.0
21/09:00am 9.5 4.3 5.3 75 1.9 NNE 22 30 12 16 1024.9 1024.8 0.0
21/08:30am 7.7 3.3 5.0 83 1.2 NE 17 20 9 11 1024.8 1024.7 0.0
21/08:00am 5.8 1.6 4.0 88 0.8 NE 15 19 8 10 1024.6 1024.4 0.0
21/07:30am 5.5 2.0 3.3 86 0.9 NE 11 13 6 7 1024.4 1024.3 0.0
21/07:00am 4.5 0.5 2.7 88 0.7 NE 13 15 7 8 1024.2 1024.1 0.0
21/06:30am 5.1 1.1 2.8 85 1.0 NE 13 15 7 8 1024.3 1024.2 0.0
21/06:00am 5.7 1.7 3.0 83 1.1 NE 13 24 7 13 1024.4 1024.3 0.0
21/05:30am 6.0 1.0 3.5 84 1.1 NE 19 20 10 11 1024.1 1024.0 0.0
21/05:00am 5.6 1.3 3.3 85 1.0 NE 15 19 8 10 1024.1 1024.0 0.0
21/04:30am 6.0 1.7 3.3 83 1.2 NE 15 17 8 9 1024.2 1024.1 0.0
21/04:00am 6.4 1.4 3.4 81 1.3 NE 19 22 10 12 1024.3 1024.2 0.0
21/03:30am 5.4 2.6 3.3 86 0.9 NNE 7 11 4 6 1024.7 1024.6 0.0
21/03:00am 5.2 1.6 3.2 87 0.8 NE 11 13 6 7 1024.8 1024.7 0.0
21/02:30am 5.2 1.6 2.9 85 1.0 NE 11 13 6 7 1024.6 1024.4 0.0
21/02:00am 5.7 1.8 3.5 86 0.9 NE 13 17 7 9 1024.9 1024.8 0.0
21/01:30am 5.6 2.1 3.3 85 1.0 NE 11 13 6 7 1024.9 1024.8 0.0
21/01:00am 5.7 2.1 3.0 83 1.1 NE 11 13 6 7 1025.0 1024.9 0.0
21/12:30am 6.6 3.6 3.9 83 1.2 NE 9 11 5 6 1025.4 1025.3 0.0
21/12:00am 6.8 4.7 3.9 82 1.3 ENE 4 7 2 4 1025.7 1025.6 0.0
 
Date/Time
WST
Temp
°C
App
Temp
°C
Dew
Point
°C
Rel
Hum
%
Delta-T
°C
Wind Press
QNH
hPa
Press
MSL
hPa
Rain since
9am
mm
Dir  Spd
km/h
Gust
km/h
Spd
kts
Gust
kts
20/11:30pm 7.3 6.1 4.4 82 1.3 CALM 0 0 0 0 1025.8 1025.7 0.0
20/11:00pm 7.5 6.2 4.3 80 1.4 CALM 0 0 0 0 1025.9 1025.8 0.0
20/10:30pm 7.3 4.3 4.3 81 1.3 E 9 9 5 5 1025.7 1025.6 0.0
20/10:00pm 7.8 5.2 4.4 79 1.5 ESE 7 9 4 5 1025.9 1025.8 0.0
20/09:30pm 7.9 4.9 4.3 78 1.6 E 9 11 5 6 1025.8 1025.7 0.0
20/09:00pm 8.0 5.0 4.0 76 1.8 E 9 11 5 6 1025.8 1025.7 0.0
20/08:30pm 9.1 6.6 4.5 73 2.1 E 7 13 4 7 1026.1 1026.0 0.0
20/08:00pm 9.1 5.4 4.5 73 2.1 ESE 13 13 7 7 1026.1 1026.0 0.0
20/07:30pm 9.5 6.2 4.5 71 2.3 ESE 11 13 6 7 1026.3 1026.2 0.0
20/07:00pm 10.1 7.1 4.3 67 2.6 SE 9 11 5 6 1026.2 1026.1 0.0
20/06:30pm 11.4 10.2 4.8 64 3.1 CALM 0 0 0 0 1025.9 1025.8 0.0
20/06:00pm 11.9 10.4 4.9 62 3.2 ENE 2 7 1 4 1025.8 1025.7 0.0
20/05:30pm 13.0 9.3 4.4 56 4.0 ENE 13 17 7 9 1025.6 1025.5 0.0
20/05:00pm 15.0 10.6 4.7 50 4.9 ENE 17 20 9 11 1025.6 1025.5 0.0
20/04:30pm 15.9 11.1 4.6 47 5.4 NE 19 22 10 12 1025.6 1025.5 0.0
20/04:00pm 16.2 11.1 4.3 45 5.6 NE 20 26 11 14 1025.6 1025.5 0.0
20/03:30pm 16.6 11.7 4.3 44 5.9 ENE 19 26 10 14 1025.7 1025.6 0.0
20/03:00pm 16.8 11.9 4.2 43 6.0 ENE 19 28 10 15 1025.9 1025.8 0.0
20/02:30pm 16.6 11.4 3.7 42 6.1 ENE 20 28 11 15 1025.9 1025.8 0.0
20/02:00pm 16.3 11.1 3.7 43 5.9 ENE 20 30 11 16 1026.1 1026.0 0.0
20/01:30pm 16.0 11.6 5.0 48 5.3 ENE 17 30 9 16 1026.4 1026.3 0.0
20/01:00pm 15.5 10.4 4.3 47 5.3 ENE 20 28 11 15 1026.8 1026.7 0.0
20/12:30pm 15.4 10.5 4.2 47 5.3 ENE 19 26 10 14 1027.4 1027.4 0.0
20/12:00pm 15.1 9.6 3.9 47 5.2 ENE 22 33 12 18 1027.9 1027.8 0.0
20/11:30am 14.6 9.3 4.9 52 4.6 ENE 22 28 12 15 1028.5 1028.4 0.0
20/11:00am 14.2 9.0 5.3 55 4.2 ENE 22 30 12 16 1029.0 1028.9 0.0
20/10:30am 13.7 8.4 5.1 56 4.1 ENE 22 26 12 14 1029.4 1029.3 0.0
20/10:00am 12.8 8.0 5.5 61 3.4 ENE 20 24 11 13 1029.6 1029.5 0.0
20/09:30am 11.1 6.6 6.0 71 2.4 ENE 19 24 10 13 1029.5 1029.4 0.0
20/09:00am 9.5 6.1 5.9 78 1.7 E 13 19 7 10 1029.5 1029.4 0.0
20/08:30am 7.8 4.9 4.9 82 1.3 ESE 9 15 5 8 1029.6 1029.5 0.0
20/08:00am 6.1 3.7 4.4 89 0.7 SE 6 7 3 4 1029.5 1029.4 0.0
20/07:30am 5.1 2.6 3.6 90 0.6 ENE 6 9 3 5 1028.7 1028.6 0.0
20/07:00am 4.4 2.1 2.8 89 0.7 ENE 4 6 2 3 1028.3 1028.2 0.0
20/06:30am 4.2 1.4 2.2 87 0.8 E 6 6 3 3 1028.1 1028.0 0.0
20/06:00am 4.9 2.2 2.9 87 0.8 E 6 7 3 4 1028.0 1027.9 0.0
20/05:30am 5.0 1.8 2.9 86 0.9 E 9 11 5 6 1027.6 1027.6 0.0
20/05:00am 4.9 2.2 2.8 86 0.9 ESE 6 7 3 4 1027.6 1027.6 0.0
20/04:30am 5.0 2.3 2.9 86 0.9 E 6 7 3 4 1027.4 1027.4 0.0
20/04:00am 5.4 2.2 2.9 84 1.0 E 9 13 5 7 1027.5 1027.5 0.0
20/03:30am 5.1 1.9 2.8 85 1.0 ESE 9 11 5 6 1027.4 1027.4 0.0
20/03:00am 5.5 1.2 3.2 85 1.0 ESE 15 17 8 9 1027.9 1027.8 0.0
20/02:30am 5.0 1.4 2.9 86 0.9 ESE 11 13 6 7 1027.7 1027.7 0.0
20/02:00am 6.1 2.2 3.4 83 1.1 SSE 13 15 7 8 1028.0 1027.9 0.0
20/01:30am 6.0 2.1 3.3 83 1.2 SE 13 15 7 8 1028.0 1027.9 0.0
20/01:00am 6.0 2.1 3.5 84 1.1 SSE 13 13 7 7 1028.0 1027.9 0.0
20/12:30am 6.5 2.3 4.0 84 1.1 SSE 15 17 8 9 1028.0 1027.9 0.0
20/12:00am 6.1 2.2 3.4 83 1.1 SE 13 15 7 8 1028.1 1028.0 0.0
 
Date/Time
WST
Temp
°C
App
Temp
°C
Dew
Point
°C
Rel
Hum
%
Delta-T
°C
Wind Press
QNH
hPa
Press
MSL
hPa
Rain since
9am
mm
Dir  Spd
km/h
Gust
km/h
Spd
kts
Gust
kts
19/11:30pm 6.8 2.6 3.8 81 1.3 SE 15 17 8 9 1028.1 1028.0 0.0
19/11:00pm 7.4 3.6 4.0 79 1.5 SSE 13 15 7 8 1028.0 1027.9 0.0
19/10:30pm 7.2 3.0 4.0 80 1.4 SE 15 15 8 8 1027.9 1027.8 0.0
19/10:00pm 7.3 3.2 4.1 80 1.4 SE 15 15 8 8 1027.6 1027.6 0.0
19/09:30pm 7.7 3.6 4.3 79 1.5 SE 15 15 8 8 1027.5 1027.5 0.0

Other formats

Comma delimited format used in spreadsheet applications
http://www.bom.gov.au/fwo/IDW60801/IDW60801.95629.axf

JavaScript Object Notation format (JSON) in row-major order
http://www.bom.gov.au/fwo/IDW60801/IDW60801.95629.json

Data quality

Most of these data are generated automatically and are frequently updated. Quality checks on data are not normally performed. It is possible for incorrect values to appear. Refer to information at About Latest Weather Observations and please check the disclaimer before using these data.